sensor_id;sensor_type;location;lat;lon;timestamp;temperature;humidity
20315;DHT22;10315;50.958;13.080;2024-03-06T00:03:36;3.80;99.90
20315;DHT22;10315;50.958;13.080;2024-03-06T00:13:39;3.80;99.90
20315;DHT22;10315;50.958;13.080;2024-03-06T00:23:40;3.70;99.90
20315;DHT22;10315;50.958;13.080;2024-03-06T00:33:43;3.60;99.90
20315;DHT22;10315;50.958;13.080;2024-03-06T00:43:45;3.60;99.90
20315;DHT22;10315;50.958;13.080;2024-03-06T00:53:48;3.40;99.90
20315;DHT22;10315;50.958;13.080;2024-03-06T01:03:49;3.30;99.90
20315;DHT22;10315;50.958;13.080;2024-03-06T01:13:53;3.30;99.90
20315;DHT22;10315;50.958;13.080;2024-03-06T01:23:55;3.20;99.90
20315;DHT22;10315;50.958;13.080;2024-03-06T01:33:58;2.90;99.90
20315;DHT22;10315;50.958;13.080;2024-03-06T01:43:59;2.80;99.90
20315;DHT22;10315;50.958;13.080;2024-03-06T01:54:03;2.70;99.90
20315;DHT22;10315;50.958;13.080;2024-03-06T02:04:05;2.50;99.90
20315;DHT22;10315;50.958;13.080;2024-03-06T02:14:09;2.40;99.90
20315;DHT22;10315;50.958;13.080;2024-03-06T02:24:12;2.30;99.90
20315;DHT22;10315;50.958;13.080;2024-03-06T02:34:15;1.90;99.90
20315;DHT22;10315;50.958;13.080;2024-03-06T02:44:17;1.80;99.90
20315;DHT22;10315;50.958;13.080;2024-03-06T02:54:19;1.50;99.90
20315;DHT22;10315;50.958;13.080;2024-03-06T03:04:22;1.30;99.90
20315;DHT22;10315;50.958;13.080;2024-03-06T03:14:24;1.80;99.90
20315;DHT22;10315;50.958;13.080;2024-03-06T03:24:27;2.10;99.90
20315;DHT22;10315;50.958;13.080;2024-03-06T03:34:28;2.10;99.90
20315;DHT22;10315;50.958;13.080;2024-03-06T03:44:32;2.10;99.90
20315;DHT22;10315;50.958;13.080;2024-03-06T03:54:33;1.80;99.90
20315;DHT22;10315;50.958;13.080;2024-03-06T04:04:36;1.40;99.90
20315;DHT22;10315;50.958;13.080;2024-03-06T04:14:38;1.20;99.90
20315;DHT22;10315;50.958;13.080;2024-03-06T04:24:42;1.30;99.90
20315;DHT22;10315;50.958;13.080;2024-03-06T04:34:44;1.20;99.90
20315;DHT22;10315;50.958;13.080;2024-03-06T04:44:48;1.20;99.90
20315;DHT22;10315;50.958;13.080;2024-03-06T04:54:49;1.10;99.90
20315;DHT22;10315;50.958;13.080;2024-03-06T05:04:52;1.10;99.90
20315;DHT22;10315;50.958;13.080;2024-03-06T05:14:55;1.20;99.90
20315;DHT22;10315;50.958;13.080;2024-03-06T05:24:58;1.30;99.90
20315;DHT22;10315;50.958;13.080;2024-03-06T05:34:59;1.30;99.90
20315;DHT22;10315;50.958;13.080;2024-03-06T05:45:03;1.30;99.90
20315;DHT22;10315;50.958;13.080;2024-03-06T05:55:10;1.20;99.90
20315;DHT22;10315;50.958;13.080;2024-03-06T06:05:14;1.30;99.90
20315;DHT22;10315;50.958;13.080;2024-03-06T06:15:15;1.30;99.90
20315;DHT22;10315;50.958;13.080;2024-03-06T06:25:18;1.30;99.90
20315;DHT22;10315;50.958;13.080;2024-03-06T06:35:20;1.40;99.90
20315;DHT22;10315;50.958;13.080;2024-03-06T06:45:24;1.50;99.90
20315;DHT22;10315;50.958;13.080;2024-03-06T06:55:25;1.80;99.90
20315;DHT22;10315;50.958;13.080;2024-03-06T07:05:28;2.20;99.90
20315;DHT22;10315;50.958;13.080;2024-03-06T07:15:30;2.60;99.90
20315;DHT22;10315;50.958;13.080;2024-03-06T07:25:33;4.30;99.90
20315;DHT22;10315;50.958;13.080;2024-03-06T07:35:34;10.40;99.90
20315;DHT22;10315;50.958;13.080;2024-03-06T07:45:38;14.90;99.90
20315;DHT22;10315;50.958;13.080;2024-03-06T07:55:40;17.40;99.90
20315;DHT22;10315;50.958;13.080;2024-03-06T08:05:43;19.10;99.90
20315;DHT22;10315;50.958;13.080;2024-03-06T08:15:45;19.90;99.90
20315;DHT22;10315;50.958;13.080;2024-03-06T08:25:48;19.10;99.90
20315;DHT22;10315;50.958;13.080;2024-03-06T08:35:49;18.60;99.90
20315;DHT22;10315;50.958;13.080;2024-03-06T08:45:52;19.60;99.90
20315;DHT22;10315;50.958;13.080;2024-03-06T08:55:54;18.00;99.90
20315;DHT22;10315;50.958;13.080;2024-03-06T09:05:57;17.70;99.90
20315;DHT22;10315;50.958;13.080;2024-03-06T09:16:00;12.70;99.90
20315;DHT22;10315;50.958;13.080;2024-03-06T09:26:04;11.80;99.90
20315;DHT22;10315;50.958;13.080;2024-03-06T09:36:07;11.70;99.90
20315;DHT22;10315;50.958;13.080;2024-03-06T09:46:14;11.40;99.90
20315;DHT22;10315;50.958;13.080;2024-03-06T09:56:16;11.20;99.90
20315;DHT22;10315;50.958;13.080;2024-03-06T10:06:21;11.20;99.90
20315;DHT22;10315;50.958;13.080;2024-03-06T10:16:22;10.80;99.90
20315;DHT22;10315;50.958;13.080;2024-03-06T10:26:30;10.60;99.90
20315;DHT22;10315;50.958;13.080;2024-03-06T10:36:32;10.60;99.90
20315;DHT22;10315;50.958;13.080;2024-03-06T10:46:36;10.40;99.90
20315;DHT22;10315;50.958;13.080;2024-03-06T10:56:39;10.50;99.90
20315;DHT22;10315;50.958;13.080;2024-03-06T11:06:44;10.40;99.90
20315;DHT22;10315;50.958;13.080;2024-03-06T11:17:00;9.90;99.90
20315;DHT22;10315;50.958;13.080;2024-03-06T11:27:04;9.60;99.90
20315;DHT22;10315;50.958;13.080;2024-03-06T11:37:08;9.70;99.90
20315;DHT22;10315;50.958;13.080;2024-03-06T11:47:12;9.90;99.90
20315;DHT22;10315;50.958;13.080;2024-03-06T11:57:13;9.90;99.90
20315;DHT22;10315;50.958;13.080;2024-03-06T12:07:17;10.00;99.90
20315;DHT22;10315;50.958;13.080;2024-03-06T12:17:20;9.80;99.90
20315;DHT22;10315;50.958;13.080;2024-03-06T12:27:23;9.90;99.90
20315;DHT22;10315;50.958;13.080;2024-03-06T12:37:28;9.90;99.90
20315;DHT22;10315;50.958;13.080;2024-03-06T12:47:31;9.40;99.90
20315;DHT22;10315;50.958;13.080;2024-03-06T12:57:33;9.60;99.90
20315;DHT22;10315;50.958;13.080;2024-03-06T13:07:36;10.00;99.90
20315;DHT22;10315;50.958;13.080;2024-03-06T13:17:38;10.60;99.90
20315;DHT22;10315;50.958;13.080;2024-03-06T13:27:41;10.70;99.90
20315;DHT22;10315;50.958;13.080;2024-03-06T13:37:43;10.00;99.90
20315;DHT22;10315;50.958;13.080;2024-03-06T13:47:46;9.20;99.90
20315;DHT22;10315;50.958;13.080;2024-03-06T13:57:49;9.70;99.90
20315;DHT22;10315;50.958;13.080;2024-03-06T14:07:52;9.70;99.90
20315;DHT22;10315;50.958;13.080;2024-03-06T14:17:54;8.90;99.90
20315;DHT22;10315;50.958;13.080;2024-03-06T14:27:57;8.90;99.90
20315;DHT22;10315;50.958;13.080;2024-03-06T14:37:59;8.30;99.90
20315;DHT22;10315;50.958;13.080;2024-03-06T14:48:02;7.70;99.90
20315;DHT22;10315;50.958;13.080;2024-03-06T14:58:04;9.00;99.90
20315;DHT22;10315;50.958;13.080;2024-03-06T15:08:07;7.80;99.90
20315;DHT22;10315;50.958;13.080;2024-03-06T15:18:08;8.10;99.90
20315;DHT22;10315;50.958;13.080;2024-03-06T15:28:11;7.20;99.90
20315;DHT22;10315;50.958;13.080;2024-03-06T15:38:13;6.90;99.90
20315;DHT22;10315;50.958;13.080;2024-03-06T15:48:16;7.20;99.90
20315;DHT22;10315;50.958;13.080;2024-03-06T15:58:18;6.50;99.90
20315;DHT22;10315;50.958;13.080;2024-03-06T16:08:21;6.40;99.90
20315;DHT22;10315;50.958;13.080;2024-03-06T16:18:27;6.30;99.90
20315;DHT22;10315;50.958;13.080;2024-03-06T16:28:30;6.00;99.90
20315;DHT22;10315;50.958;13.080;2024-03-06T16:38:31;5.80;99.90
20315;DHT22;10315;50.958;13.080;2024-03-06T16:48:35;5.60;99.90
20315;DHT22;10315;50.958;13.080;2024-03-06T16:58:36;5.30;99.90
20315;DHT22;10315;50.958;13.080;2024-03-06T17:08:39;4.80;99.90
20315;DHT22;10315;50.958;13.080;2024-03-06T17:18:41;4.50;99.90
20315;DHT22;10315;50.958;13.080;2024-03-06T17:28:44;4.10;99.90
20315;DHT22;10315;50.958;13.080;2024-03-06T17:38:47;4.00;99.90
20315;DHT22;10315;50.958;13.080;2024-03-06T17:48:50;3.90;99.90
20315;DHT22;10315;50.958;13.080;2024-03-06T17:58:51;3.80;99.90
20315;DHT22;10315;50.958;13.080;2024-03-06T18:08:54;3.70;99.90
20315;DHT22;10315;50.958;13.080;2024-03-06T18:18:56;3.40;99.90
20315;DHT22;10315;50.958;13.080;2024-03-06T18:28:59;3.00;99.90
20315;DHT22;10315;50.958;13.080;2024-03-06T18:39:01;2.90;99.90
20315;DHT22;10315;50.958;13.080;2024-03-06T18:49:04;3.00;99.90
20315;DHT22;10315;50.958;13.080;2024-03-06T18:59:06;3.20;99.90
20315;DHT22;10315;50.958;13.080;2024-03-06T19:09:09;3.20;99.90
20315;DHT22;10315;50.958;13.080;2024-03-06T19:19:11;3.20;99.90
20315;DHT22;10315;50.958;13.080;2024-03-06T19:29:14;3.20;99.90
20315;DHT22;10315;50.958;13.080;2024-03-06T19:39:16;3.20;99.90
20315;DHT22;10315;50.958;13.080;2024-03-06T19:49:20;3.20;99.90
20315;DHT22;10315;50.958;13.080;2024-03-06T19:59:22;3.20;99.90
20315;DHT22;10315;50.958;13.080;2024-03-06T20:09:25;3.20;99.90
20315;DHT22;10315;50.958;13.080;2024-03-06T20:19:28;3.20;99.90
20315;DHT22;10315;50.958;13.080;2024-03-06T20:29:33;3.10;99.90
20315;DHT22;10315;50.958;13.080;2024-03-06T20:39:34;3.10;99.90
20315;DHT22;10315;50.958;13.080;2024-03-06T20:49:37;2.90;99.90
20315;DHT22;10315;50.958;13.080;2024-03-06T20:59:39;2.70;99.90
20315;DHT22;10315;50.958;13.080;2024-03-06T21:09:42;2.60;99.90
20315;DHT22;10315;50.958;13.080;2024-03-06T21:19:44;2.50;99.90
20315;DHT22;10315;50.958;13.080;2024-03-06T21:29:47;2.50;99.90
20315;DHT22;10315;50.958;13.080;2024-03-06T21:39:49;2.20;99.90
20315;DHT22;10315;50.958;13.080;2024-03-06T21:49:52;2.00;99.90
20315;DHT22;10315;50.958;13.080;2024-03-06T21:59:54;2.10;99.90
20315;DHT22;10315;50.958;13.080;2024-03-06T22:09:57;2.10;99.90
20315;DHT22;10315;50.958;13.080;2024-03-06T22:19:59;2.20;99.90
20315;DHT22;10315;50.958;13.080;2024-03-06T22:30:05;2.40;99.90
20315;DHT22;10315;50.958;13.080;2024-03-06T22:40:08;2.50;99.90
20315;DHT22;10315;50.958;13.080;2024-03-06T22:50:11;2.50;99.90
20315;DHT22;10315;50.958;13.080;2024-03-06T23:00:13;2.60;99.90
20315;DHT22;10315;50.958;13.080;2024-03-06T23:10:30;2.60;99.90
20315;DHT22;10315;50.958;13.080;2024-03-06T23:20:31;2.50;99.90
20315;DHT22;10315;50.958;13.080;2024-03-06T23:30:34;2.50;99.90
20315;DHT22;10315;50.958;13.080;2024-03-06T23:40:37;2.50;99.90
20315;DHT22;10315;50.958;13.080;2024-03-06T23:50:40;2.60;99.90
